Agana Heights, GU (96910)

4:24 AM ChST on August 30, 2015 (GMT +1000)
Maite | | Change Station
CLOSE
Current Station
Personal Weather Station
Location: Maite, GU
Elevation: 140 ft
Nearby Weather Stations
Active Advisory: High Surf Advisory

Elev 140 ft 13.48 °N, 144.76 °E | Updated 31 seconds ago

Scattered Clouds
Scattered Clouds
78.7 °F
Feels Like 82 °F
N
2.0
Wind Variable Wind from South
Gusts 4.0 mph

Today
High -- | Low -- °F
--% Chance of Precip.
Yesterday
High -- | Low -- °F
Precip. -- in
6:09 AM 6:34 PM
Full, 100% visible
Pressure 29.79 in
Visibility 10.0 miles
Clouds Scattered Clouds 3600 ft
Heat Index 82 °F
Dew Point 76 °F
Humidity 92%
Rainfall 0.00 in
Snow Depth Not available.
UV 0.0 out of 12
Pollen Not available.
Air Quality Not available.
Flu Activity Not available.
METAR PGUM 291754Z 00000KT 10SM SCT036 26/24 A2981 RMK AO2 SLP086 T02560239 10261 20244 56008
Pressure 29.79 in
Visibility 10.0 miles
Clouds Scattered Clouds 3600 ft
Heat Index 82 °F
Dew Point 76 °F
Humidity 92%
Rainfall 0.00 in
Snow Depth Not available.
UV 0.0 out of 12
Pollen Not available.
Air Quality Not available.
Flu Activity Not available.
METAR PGUM 291754Z 00000KT 10SM SCT036 26/24 A2981 RMK AO2 SLP086 T02560239 10261 20244 56008

10-Day Weather Forecast

×

Almanac

Astronomy

Aug. 30, 2015 Rise Set
Actual Time
Civil Twilight
Nautical Twilight
Astronomical Twilight
Moon
Length of Visible Light
Length of Day
Tomorrow will be .
, % of the Moon is Illuminated

Today's Extremes

State Highs State Lows

Community

WunderPhotos

Upload Photos

1,850,755 photos uploaded!

WunderBlogs® & News

Nearby

Air Quality

  Air Quality AQ Index Pollutant
Not available.

Snow Depth

Station Depth Elevation

Earthquake Activity

City Distance Mag. Time & Date
Minimum magnitude displayed is 2.5.

Coastal Water Temperatures

Place Temperature

Stations

Nearby Weather Stations

Station Location Temp. Windchill Dew Point Humidity Wind Precip. Elev Updated Type
                   
High Surf Advisory
Statement as of 3:01 PM GMT on August 29, 2015

... High surf advisory now in effect until 6 PM chst Sunday along
north facing reefs...

Expect hazardous surf of 8 to 10 feet tonight along north facing
reefs. Surf will still be hazardous at 7 to 9 feet on Sunday but
is expected to fall below hazardous levels Sunday night.

Precautionary/preparedness actions...

Avoid venturing near exposed reefs and beaches... especially those
facing north... as rip currents will be life threatening.